sensor_id;sensor_type;location;lat;lon;timestamp;P1;durP1;ratioP1;P2;durP2;ratioP2
1751;SDS011;873;47.696;8.068;2022-11-20T00:01:40;3.53;;;2.20;;
1751;SDS011;873;47.696;8.068;2022-11-20T00:04:05;2.23;;;2.03;;
1751;SDS011;873;47.696;8.068;2022-11-20T00:06:31;2.67;;;2.03;;
1751;SDS011;873;47.696;8.068;2022-11-20T00:08:57;2.67;;;2.00;;
1751;SDS011;873;47.696;8.068;2022-11-20T00:11:25;2.70;;;2.50;;
1751;SDS011;873;47.696;8.068;2022-11-20T00:13:52;2.27;;;2.03;;
1751;SDS011;873;47.696;8.068;2022-11-20T00:16:20;3.70;;;2.50;;
1751;SDS011;873;47.696;8.068;2022-11-20T00:18:47;4.27;;;2.60;;
1751;SDS011;873;47.696;8.068;2022-11-20T00:21:14;2.93;;;2.30;;
1751;SDS011;873;47.696;8.068;2022-11-20T00:23:41;2.60;;;2.20;;
1751;SDS011;873;47.696;8.068;2022-11-20T00:26:08;3.27;;;2.40;;
1751;SDS011;873;47.696;8.068;2022-11-20T00:28:34;3.53;;;2.10;;
1751;SDS011;873;47.696;8.068;2022-11-20T00:31:01;2.43;;;2.23;;
1751;SDS011;873;47.696;8.068;2022-11-20T00:33:29;3.57;;;2.50;;
1751;SDS011;873;47.696;8.068;2022-11-20T00:35:58;3.27;;;2.70;;
1751;SDS011;873;47.696;8.068;2022-11-20T00:38:25;2.50;;;2.20;;
1751;SDS011;873;47.696;8.068;2022-11-20T00:40:55;2.43;;;2.23;;
1751;SDS011;873;47.696;8.068;2022-11-20T00:43:21;3.13;;;2.80;;
1751;SDS011;873;47.696;8.068;2022-11-20T00:45:47;2.60;;;2.37;;
1751;SDS011;873;47.696;8.068;2022-11-20T00:48:12;3.20;;;2.40;;
1751;SDS011;873;47.696;8.068;2022-11-20T00:50:38;4.27;;;2.80;;
1751;SDS011;873;47.696;8.068;2022-11-20T00:53:04;2.80;;;2.50;;
1751;SDS011;873;47.696;8.068;2022-11-20T00:55:29;3.67;;;2.77;;
1751;SDS011;873;47.696;8.068;2022-11-20T00:57:55;2.97;;;2.67;;
1751;SDS011;873;47.696;8.068;2022-11-20T01:00:20;5.60;;;3.03;;
1751;SDS011;873;47.696;8.068;2022-11-20T01:02:46;3.10;;;2.57;;
1751;SDS011;873;47.696;8.068;2022-11-20T01:05:11;4.87;;;3.13;;
1751;SDS011;873;47.696;8.068;2022-11-20T01:07:37;4.47;;;2.43;;
1751;SDS011;873;47.696;8.068;2022-11-20T01:10:02;3.27;;;2.73;;
1751;SDS011;873;47.696;8.068;2022-11-20T01:12:28;3.43;;;2.40;;
1751;SDS011;873;47.696;8.068;2022-11-20T01:14:53;2.87;;;2.43;;
1751;SDS011;873;47.696;8.068;2022-11-20T01:17:19;3.87;;;2.37;;
1751;SDS011;873;47.696;8.068;2022-11-20T01:19:44;2.50;;;2.30;;
1751;SDS011;873;47.696;8.068;2022-11-20T01:22:14;3.37;;;2.93;;
1751;SDS011;873;47.696;8.068;2022-11-20T01:24:39;3.73;;;2.63;;
1751;SDS011;873;47.696;8.068;2022-11-20T01:27:05;3.23;;;2.57;;
1751;SDS011;873;47.696;8.068;2022-11-20T01:29:30;3.30;;;2.50;;
1751;SDS011;873;47.696;8.068;2022-11-20T01:31:56;3.10;;;2.33;;
1751;SDS011;873;47.696;8.068;2022-11-20T01:34:21;3.30;;;2.60;;
1751;SDS011;873;47.696;8.068;2022-11-20T01:36:47;2.63;;;2.10;;
1751;SDS011;873;47.696;8.068;2022-11-20T01:39:14;3.87;;;2.30;;
1751;SDS011;873;47.696;8.068;2022-11-20T01:41:42;3.20;;;2.27;;
1751;SDS011;873;47.696;8.068;2022-11-20T01:52:49;4.97;;;2.23;;
1751;SDS011;873;47.696;8.068;2022-11-20T01:55:18;2.33;;;2.13;;
1751;SDS011;873;47.696;8.068;2022-11-20T01:57:45;6.00;;;2.60;;
1751;SDS011;873;47.696;8.068;2022-11-20T02:00:12;2.53;;;2.10;;
1751;SDS011;873;47.696;8.068;2022-11-20T02:02:40;2.20;;;1.80;;
1751;SDS011;873;47.696;8.068;2022-11-20T02:05:11;4.80;;;2.00;;
1751;SDS011;873;47.696;8.068;2022-11-20T02:07:43;1.93;;;1.80;;
1751;SDS011;873;47.696;8.068;2022-11-20T02:10:09;3.53;;;2.10;;
1751;SDS011;873;47.696;8.068;2022-11-20T02:12:34;3.03;;;2.33;;
1751;SDS011;873;47.696;8.068;2022-11-20T02:15:20;4.90;;;2.07;;
1751;SDS011;873;47.696;8.068;2022-11-20T02:17:45;2.77;;;2.07;;
1751;SDS011;873;47.696;8.068;2022-11-20T02:20:11;1.90;;;1.60;;
1751;SDS011;873;47.696;8.068;2022-11-20T02:22:39;2.63;;;1.87;;
1751;SDS011;873;47.696;8.068;2022-11-20T02:25:13;2.10;;;1.73;;
1751;SDS011;873;47.696;8.068;2022-11-20T02:27:39;2.30;;;1.67;;
1751;SDS011;873;47.696;8.068;2022-11-20T02:30:05;2.67;;;2.10;;
1751;SDS011;873;47.696;8.068;2022-11-20T02:32:34;2.33;;;2.03;;
1751;SDS011;873;47.696;8.068;2022-11-20T02:37:58;2.63;;;1.90;;
1751;SDS011;873;47.696;8.068;2022-11-20T02:40:24;4.20;;;2.13;;
1751;SDS011;873;47.696;8.068;2022-11-20T02:42:52;4.27;;;1.80;;
1751;SDS011;873;47.696;8.068;2022-11-20T02:45:18;2.23;;;2.03;;
1751;SDS011;873;47.696;8.068;2022-11-20T02:47:43;2.70;;;2.10;;
1751;SDS011;873;47.696;8.068;2022-11-20T02:50:09;2.03;;;1.77;;
1751;SDS011;873;47.696;8.068;2022-11-20T02:52:35;3.57;;;2.00;;
1751;SDS011;873;47.696;8.068;2022-11-20T02:55:01;2.07;;;1.80;;
1751;SDS011;873;47.696;8.068;2022-11-20T02:57:27;3.97;;;2.00;;
1751;SDS011;873;47.696;8.068;2022-11-20T02:59:53;2.20;;;1.70;;
1751;SDS011;873;47.696;8.068;2022-11-20T03:02:18;2.37;;;2.00;;
1751;SDS011;873;47.696;8.068;2022-11-20T03:04:44;2.00;;;1.73;;
1751;SDS011;873;47.696;8.068;2022-11-20T03:07:09;2.93;;;2.30;;
1751;SDS011;873;47.696;8.068;2022-11-20T03:09:35;3.30;;;2.53;;
1751;SDS011;873;47.696;8.068;2022-11-20T03:12:01;2.93;;;2.40;;
1751;SDS011;873;47.696;8.068;2022-11-20T03:14:26;3.27;;;2.73;;
1751;SDS011;873;47.696;8.068;2022-11-20T03:16:52;3.23;;;2.70;;
1751;SDS011;873;47.696;8.068;2022-11-20T03:19:17;7.93;;;3.40;;
1751;SDS011;873;47.696;8.068;2022-11-20T03:21:43;3.40;;;2.57;;
1751;SDS011;873;47.696;8.068;2022-11-20T03:24:08;5.13;;;2.57;;
1751;SDS011;873;47.696;8.068;2022-11-20T03:26:34;3.20;;;2.57;;
1751;SDS011;873;47.696;8.068;2022-11-20T03:29:00;4.73;;;2.80;;
1751;SDS011;873;47.696;8.068;2022-11-20T03:31:29;2.70;;;2.50;;
1751;SDS011;873;47.696;8.068;2022-11-20T03:33:57;3.10;;;2.53;;
1751;SDS011;873;47.696;8.068;2022-11-20T03:36:25;4.27;;;3.20;;
1751;SDS011;873;47.696;8.068;2022-11-20T03:38:52;3.10;;;2.80;;
1751;SDS011;873;47.696;8.068;2022-11-20T03:41:19;3.97;;;3.00;;
1751;SDS011;873;47.696;8.068;2022-11-20T03:43:46;4.07;;;2.70;;
1751;SDS011;873;47.696;8.068;2022-11-20T03:46:14;3.40;;;2.93;;
1751;SDS011;873;47.696;8.068;2022-11-20T03:48:39;4.73;;;3.10;;
1751;SDS011;873;47.696;8.068;2022-11-20T03:51:07;3.27;;;2.97;;
1751;SDS011;873;47.696;8.068;2022-11-20T03:53:42;4.10;;;3.47;;
1751;SDS011;873;47.696;8.068;2022-11-20T03:56:09;4.10;;;3.53;;
1751;SDS011;873;47.696;8.068;2022-11-20T03:58:35;4.27;;;3.70;;
1751;SDS011;873;47.696;8.068;2022-11-20T04:03:49;5.47;;;4.47;;
1751;SDS011;873;47.696;8.068;2022-11-20T04:06:17;5.80;;;4.37;;
1751;SDS011;873;47.696;8.068;2022-11-20T04:08:44;4.57;;;4.03;;
1751;SDS011;873;47.696;8.068;2022-11-20T04:13:48;2.37;;;2.07;;
1751;SDS011;873;47.696;8.068;2022-11-20T04:16:15;3.37;;;2.13;;
1751;SDS011;873;47.696;8.068;2022-11-20T04:18:41;1.70;;;1.60;;
1751;SDS011;873;47.696;8.068;2022-11-20T04:21:07;2.80;;;2.07;;
1751;SDS011;873;47.696;8.068;2022-11-20T04:23:32;2.50;;;2.20;;
1751;SDS011;873;47.696;8.068;2022-11-20T04:26:02;3.20;;;2.30;;
1751;SDS011;873;47.696;8.068;2022-11-20T04:28:29;3.33;;;2.00;;
1751;SDS011;873;47.696;8.068;2022-11-20T04:31:01;5.20;;;3.10;;
1751;SDS011;873;47.696;8.068;2022-11-20T04:33:27;2.50;;;2.10;;
1751;SDS011;873;47.696;8.068;2022-11-20T04:35:53;2.10;;;1.80;;
1751;SDS011;873;47.696;8.068;2022-11-20T04:38:18;2.33;;;2.00;;
1751;SDS011;873;47.696;8.068;2022-11-20T04:40:43;2.73;;;1.87;;
1751;SDS011;873;47.696;8.068;2022-11-20T04:43:09;2.63;;;1.30;;
1751;SDS011;873;47.696;8.068;2022-11-20T04:45:34;1.57;;;1.40;;
1751;SDS011;873;47.696;8.068;2022-11-20T04:48:00;1.67;;;1.00;;
1751;SDS011;873;47.696;8.068;2022-11-20T04:50:26;0.83;;;0.63;;
1751;SDS011;873;47.696;8.068;2022-11-20T04:52:51;0.50;;;0.50;;
1751;SDS011;873;47.696;8.068;2022-11-20T04:55:17;0.50;;;0.50;;
1751;SDS011;873;47.696;8.068;2022-11-20T04:57:42;0.77;;;0.40;;
1751;SDS011;873;47.696;8.068;2022-11-20T05:00:08;0.40;;;0.40;;
1751;SDS011;873;47.696;8.068;2022-11-20T05:05:27;0.93;;;0.37;;
1751;SDS011;873;47.696;8.068;2022-11-20T05:07:52;1.37;;;1.07;;
1751;SDS011;873;47.696;8.068;2022-11-20T05:10:18;0.80;;;0.73;;
1751;SDS011;873;47.696;8.068;2022-11-20T05:12:43;91.87;;;5.17;;
1751;SDS011;873;47.696;8.068;2022-11-20T05:15:09;218.93;;;14.37;;
1751;SDS011;873;47.696;8.068;2022-11-20T05:17:35;210.47;;;10.27;;
1751;SDS011;873;47.696;8.068;2022-11-20T05:20:01;157.13;;;9.40;;
1751;SDS011;873;47.696;8.068;2022-11-20T05:22:27;237.20;;;13.00;;
1751;SDS011;873;47.696;8.068;2022-11-20T05:24:52;336.93;;;17.03;;
1751;SDS011;873;47.696;8.068;2022-11-20T05:27:18;257.27;;;13.57;;
1751;SDS011;873;47.696;8.068;2022-11-20T05:29:43;443.83;;;21.07;;
1751;SDS011;873;47.696;8.068;2022-11-20T05:32:09;297.90;;;14.53;;
1751;SDS011;873;47.696;8.068;2022-11-20T05:34:35;352.40;;;18.60;;
1751;SDS011;873;47.696;8.068;2022-11-20T05:37:01;371.30;;;18.33;;
1751;SDS011;873;47.696;8.068;2022-11-20T05:39:27;363.80;;;18.23;;
1751;SDS011;873;47.696;8.068;2022-11-20T05:41:53;320.50;;;15.73;;
1751;SDS011;873;47.696;8.068;2022-11-20T05:44:38;443.10;;;21.10;;
1751;SDS011;873;47.696;8.068;2022-11-20T05:47:04;405.37;;;21.43;;
1751;SDS011;873;47.696;8.068;2022-11-20T05:49:30;501.33;;;25.17;;
1751;SDS011;873;47.696;8.068;2022-11-20T05:51:55;453.47;;;21.33;;
1751;SDS011;873;47.696;8.068;2022-11-20T05:54:21;568.47;;;29.10;;
1751;SDS011;873;47.696;8.068;2022-11-20T05:56:46;408.70;;;18.97;;
1751;SDS011;873;47.696;8.068;2022-11-20T05:59:12;461.33;;;23.17;;
1751;SDS011;873;47.696;8.068;2022-11-20T06:01:37;480.80;;;21.73;;
1751;SDS011;873;47.696;8.068;2022-11-20T06:04:03;543.93;;;32.63;;
1751;SDS011;873;47.696;8.068;2022-11-20T06:06:28;462.87;;;23.30;;
1751;SDS011;873;47.696;8.068;2022-11-20T06:08:54;528.73;;;25.43;;
1751;SDS011;873;47.696;8.068;2022-11-20T06:11:19;496.33;;;24.13;;
1751;SDS011;873;47.696;8.068;2022-11-20T06:13:45;481.00;;;24.03;;
1751;SDS011;873;47.696;8.068;2022-11-20T06:16:11;482.40;;;26.23;;
1751;SDS011;873;47.696;8.068;2022-11-20T06:18:39;403.10;;;21.30;;
1751;SDS011;873;47.696;8.068;2022-11-20T06:21:07;406.50;;;20.90;;
1751;SDS011;873;47.696;8.068;2022-11-20T06:23:35;346.10;;;18.70;;
1751;SDS011;873;47.696;8.068;2022-11-20T06:26:02;175.13;;;7.80;;
1751;SDS011;873;47.696;8.068;2022-11-20T06:28:29;366.40;;;19.07;;
1751;SDS011;873;47.696;8.068;2022-11-20T06:30:55;318.20;;;16.70;;
1751;SDS011;873;47.696;8.068;2022-11-20T06:33:20;432.33;;;22.80;;
1751;SDS011;873;47.696;8.068;2022-11-20T06:35:46;364.70;;;18.23;;
1751;SDS011;873;47.696;8.068;2022-11-20T06:38:11;349.97;;;18.37;;
1751;SDS011;873;47.696;8.068;2022-11-20T06:40:39;252.63;;;14.27;;
1751;SDS011;873;47.696;8.068;2022-11-20T06:43:05;75.20;;;5.70;;
1751;SDS011;873;47.696;8.068;2022-11-20T06:45:31;197.97;;;11.47;;
1751;SDS011;873;47.696;8.068;2022-11-20T06:47:57;96.03;;;6.30;;
1751;SDS011;873;47.696;8.068;2022-11-20T06:50:23;316.20;;;16.67;;
1751;SDS011;873;47.696;8.068;2022-11-20T06:52:49;465.37;;;26.17;;
1751;SDS011;873;47.696;8.068;2022-11-20T06:55:15;333.10;;;18.40;;
1751;SDS011;873;47.696;8.068;2022-11-20T06:57:40;282.37;;;14.67;;
1751;SDS011;873;47.696;8.068;2022-11-20T07:00:06;521.20;;;26.10;;
1751;SDS011;873;47.696;8.068;2022-11-20T07:02:32;429.27;;;27.23;;
1751;SDS011;873;47.696;8.068;2022-11-20T07:04:57;470.23;;;27.20;;
1751;SDS011;873;47.696;8.068;2022-11-20T07:07:23;407.37;;;20.27;;
1751;SDS011;873;47.696;8.068;2022-11-20T07:09:48;483.73;;;27.60;;
1751;SDS011;873;47.696;8.068;2022-11-20T07:12:14;468.67;;;26.27;;
1751;SDS011;873;47.696;8.068;2022-11-20T07:14:39;522.77;;;27.73;;
1751;SDS011;873;47.696;8.068;2022-11-20T07:17:05;430.63;;;20.87;;
1751;SDS011;873;47.696;8.068;2022-11-20T07:19:30;429.13;;;22.07;;
1751;SDS011;873;47.696;8.068;2022-11-20T07:21:55;508.00;;;28.23;;
1751;SDS011;873;47.696;8.068;2022-11-20T07:24:21;537.07;;;27.73;;
1751;SDS011;873;47.696;8.068;2022-11-20T07:26:46;539.27;;;29.43;;
1751;SDS011;873;47.696;8.068;2022-11-20T07:29:14;570.43;;;32.57;;
1751;SDS011;873;47.696;8.068;2022-11-20T07:31:40;592.73;;;35.43;;
1751;SDS011;873;47.696;8.068;2022-11-20T07:34:05;540.73;;;29.17;;
1751;SDS011;873;47.696;8.068;2022-11-20T07:36:31;526.10;;;29.07;;
1751;SDS011;873;47.696;8.068;2022-11-20T07:38:56;529.03;;;29.77;;
1751;SDS011;873;47.696;8.068;2022-11-20T07:41:22;447.43;;;25.20;;
1751;SDS011;873;47.696;8.068;2022-11-20T07:43:47;603.47;;;35.40;;
1751;SDS011;873;47.696;8.068;2022-11-20T07:46:13;467.03;;;24.33;;
1751;SDS011;873;47.696;8.068;2022-11-20T07:48:39;670.70;;;38.03;;
1751;SDS011;873;47.696;8.068;2022-11-20T07:51:04;480.97;;;23.07;;
1751;SDS011;873;47.696;8.068;2022-11-20T07:53:30;424.87;;;23.23;;
1751;SDS011;873;47.696;8.068;2022-11-20T07:55:58;520.60;;;28.67;;
1751;SDS011;873;47.696;8.068;2022-11-20T07:58:25;520.27;;;30.10;;
1751;SDS011;873;47.696;8.068;2022-11-20T08:00:50;462.60;;;24.37;;
1751;SDS011;873;47.696;8.068;2022-11-20T08:03:16;448.17;;;29.43;;
1751;SDS011;873;47.696;8.068;2022-11-20T08:05:42;366.73;;;20.20;;
1751;SDS011;873;47.696;8.068;2022-11-20T08:08:08;393.80;;;21.67;;
1751;SDS011;873;47.696;8.068;2022-11-20T08:10:34;453.67;;;23.00;;
1751;SDS011;873;47.696;8.068;2022-11-20T08:12:59;522.77;;;30.37;;
1751;SDS011;873;47.696;8.068;2022-11-20T08:15:47;508.37;;;27.83;;
1751;SDS011;873;47.696;8.068;2022-11-20T08:18:15;347.70;;;18.97;;
1751;SDS011;873;47.696;8.068;2022-11-20T08:20:40;289.30;;;18.17;;
1751;SDS011;873;47.696;8.068;2022-11-20T08:23:06;300.70;;;18.30;;
1751;SDS011;873;47.696;8.068;2022-11-20T08:25:33;221.10;;;12.27;;
1751;SDS011;873;47.696;8.068;2022-11-20T08:28:00;200.60;;;11.23;;
1751;SDS011;873;47.696;8.068;2022-11-20T08:30:28;15.23;;;4.17;;
1751;SDS011;873;47.696;8.068;2022-11-20T08:32:54;19.93;;;4.33;;
1751;SDS011;873;47.696;8.068;2022-11-20T08:35:21;11.77;;;4.27;;
1751;SDS011;873;47.696;8.068;2022-11-20T08:37:47;4.23;;;2.77;;
1751;SDS011;873;47.696;8.068;2022-11-20T08:40:13;2.30;;;2.10;;
1751;SDS011;873;47.696;8.068;2022-11-20T08:42:46;3.00;;;2.40;;
1751;SDS011;873;47.696;8.068;2022-11-20T08:45:13;2.30;;;2.10;;
1751;SDS011;873;47.696;8.068;2022-11-20T08:47:39;2.77;;;2.20;;
1751;SDS011;873;47.696;8.068;2022-11-20T08:50:04;3.73;;;2.40;;
1751;SDS011;873;47.696;8.068;2022-11-20T08:52:30;2.40;;;2.10;;
1751;SDS011;873;47.696;8.068;2022-11-20T08:54:56;6.20;;;2.57;;
1751;SDS011;873;47.696;8.068;2022-11-20T08:57:21;1.67;;;1.57;;
1751;SDS011;873;47.696;8.068;2022-11-20T08:59:47;2.40;;;1.60;;
1751;SDS011;873;47.696;8.068;2022-11-20T09:02:12;2.30;;;2.00;;
1751;SDS011;873;47.696;8.068;2022-11-20T09:04:38;2.97;;;1.60;;
1751;SDS011;873;47.696;8.068;2022-11-20T09:07:03;1.47;;;1.27;;
1751;SDS011;873;47.696;8.068;2022-11-20T09:09:29;1.37;;;1.27;;
1751;SDS011;873;47.696;8.068;2022-11-20T09:11:55;3.90;;;1.40;;
1751;SDS011;873;47.696;8.068;2022-11-20T09:14:20;1.43;;;1.20;;
1751;SDS011;873;47.696;8.068;2022-11-20T09:16:46;1.47;;;0.80;;
1751;SDS011;873;47.696;8.068;2022-11-20T09:19:12;0.80;;;0.80;;
1751;SDS011;873;47.696;8.068;2022-11-20T09:21:37;1.23;;;0.80;;
1751;SDS011;873;47.696;8.068;2022-11-20T09:24:03;0.80;;;0.80;;
1751;SDS011;873;47.696;8.068;2022-11-20T09:26:29;0.77;;;0.73;;
1751;SDS011;873;47.696;8.068;2022-11-20T09:28:55;1.70;;;0.77;;
1751;SDS011;873;47.696;8.068;2022-11-20T09:31:22;1.00;;;0.80;;
1751;SDS011;873;47.696;8.068;2022-11-20T09:33:48;0.47;;;0.40;;
1751;SDS011;873;47.696;8.068;2022-11-20T09:36:14;0.50;;;0.50;;
1751;SDS011;873;47.696;8.068;2022-11-20T09:38:41;1.03;;;0.63;;
1751;SDS011;873;47.696;8.068;2022-11-20T09:41:06;0.67;;;0.40;;
1751;SDS011;873;47.696;8.068;2022-11-20T09:46:51;1.00;;;0.82;;
1751;SDS011;873;47.696;8.068;2022-11-20T09:49:23;2.00;;;1.27;;
1751;SDS011;873;47.696;8.068;2022-11-20T09:54:47;5.33;;;1.83;;
1751;SDS011;873;47.696;8.068;2022-11-20T09:57:14;1.20;;;1.10;;
1751;SDS011;873;47.696;8.068;2022-11-20T10:00:00;1.20;;;1.10;;
1751;SDS011;873;47.696;8.068;2022-11-20T10:08:03;0.67;;;0.67;;
1751;SDS011;873;47.696;8.068;2022-11-20T10:10:49;0.50;;;0.50;;
1751;SDS011;873;47.696;8.068;2022-11-20T10:18:54;0.70;;;0.60;;
1751;SDS011;873;47.696;8.068;2022-11-20T10:30:16;6.17;;;2.53;;
1751;SDS011;873;47.696;8.068;2022-11-20T10:32:46;3.37;;;2.63;;
1751;SDS011;873;47.696;8.068;2022-11-20T10:37:53;3.20;;;2.60;;
1751;SDS011;873;47.696;8.068;2022-11-20T10:43:14;3.47;;;2.90;;
1751;SDS011;873;47.696;8.068;2022-11-20T10:46:00;7.53;;;2.67;;
1751;SDS011;873;47.696;8.068;2022-11-20T10:48:30;2.70;;;2.10;;
1751;SDS011;873;47.696;8.068;2022-11-20T10:56:47;2.20;;;2.00;;
1751;SDS011;873;47.696;8.068;2022-11-20T11:02:22;8.00;;;1.80;;
1751;SDS011;873;47.696;8.068;2022-11-20T11:04:50;2.07;;;1.83;;
1751;SDS011;873;47.696;8.068;2022-11-20T11:10:05;2.90;;;1.80;;
1751;SDS011;873;47.696;8.068;2022-11-20T11:12:42;1.80;;;1.60;;
1751;SDS011;873;47.696;8.068;2022-11-20T11:15:27;3.13;;;2.03;;
1751;SDS011;873;47.696;8.068;2022-11-20T11:18:01;4.83;;;2.00;;
1751;SDS011;873;47.696;8.068;2022-11-20T11:20:26;1.60;;;1.50;;
1751;SDS011;873;47.696;8.068;2022-11-20T11:22:53;2.10;;;1.90;;
1751;SDS011;873;47.696;8.068;2022-11-20T11:27:58;4.77;;;1.70;;
1751;SDS011;873;47.696;8.068;2022-11-20T11:30:27;3.03;;;2.30;;
1751;SDS011;873;47.696;8.068;2022-11-20T11:33:11;3.00;;;2.70;;
1751;SDS011;873;47.696;8.068;2022-11-20T11:35:45;3.00;;;2.30;;
1751;SDS011;873;47.696;8.068;2022-11-20T11:38:14;2.23;;;2.03;;
1751;SDS011;873;47.696;8.068;2022-11-20T11:40:42;3.20;;;2.87;;
1751;SDS011;873;47.696;8.068;2022-11-20T11:43:17;3.00;;;2.50;;
1751;SDS011;873;47.696;8.068;2022-11-20T11:46:24;4.87;;;2.03;;
1751;SDS011;873;47.696;8.068;2022-11-20T11:48:54;1.20;;;1.10;;
1751;SDS011;873;47.696;8.068;2022-11-20T11:51:22;0.80;;;0.80;;
1751;SDS011;873;47.696;8.068;2022-11-20T11:53:48;0.50;;;0.43;;
1751;SDS011;873;47.696;8.068;2022-11-20T11:56:14;0.60;;;0.60;;
1751;SDS011;873;47.696;8.068;2022-11-20T11:58:47;0.60;;;0.60;;
1751;SDS011;873;47.696;8.068;2022-11-20T12:07:11;2.27;;;0.97;;
1751;SDS011;873;47.696;8.068;2022-11-20T12:09:46;1.20;;;1.10;;
1751;SDS011;873;47.696;8.068;2022-11-20T12:12:17;1.57;;;1.07;;
1751;SDS011;873;47.696;8.068;2022-11-20T12:14:46;1.40;;;1.20;;
1751;SDS011;873;47.696;8.068;2022-11-20T12:17:14;1.77;;;1.30;;
1751;SDS011;873;47.696;8.068;2022-11-20T12:19:39;1.70;;;1.60;;
1751;SDS011;873;47.696;8.068;2022-11-20T12:30:21;2.47;;;1.30;;
1751;SDS011;873;47.696;8.068;2022-11-20T12:32:52;1.90;;;1.47;;
1751;SDS011;873;47.696;8.068;2022-11-20T12:38:19;1.95;;;1.60;;
1751;SDS011;873;47.696;8.068;2022-11-20T12:43:47;2.67;;;1.38;;
1751;SDS011;873;47.696;8.068;2022-11-20T12:46:48;3.03;;;1.73;;
1751;SDS011;873;47.696;8.068;2022-11-20T12:49:40;2.70;;;1.57;;
1751;SDS011;873;47.696;8.068;2022-11-20T12:52:29;2.13;;;1.93;;
1751;SDS011;873;47.696;8.068;2022-11-20T12:55:15;2.43;;;1.60;;
1751;SDS011;873;47.696;8.068;2022-11-20T12:57:52;1.27;;;1.13;;
1751;SDS011;873;47.696;8.068;2022-11-20T13:00:22;1.80;;;1.07;;
1751;SDS011;873;47.696;8.068;2022-11-20T13:05:51;2.03;;;1.20;;
1751;SDS011;873;47.696;8.068;2022-11-20T13:08:34;3.03;;;1.20;;
1751;SDS011;873;47.696;8.068;2022-11-20T13:19:09;1.98;;;1.40;;
1751;SDS011;873;47.696;8.068;2022-11-20T13:21:40;3.77;;;0.93;;
1751;SDS011;873;47.696;8.068;2022-11-20T13:24:24;1.43;;;1.33;;
1751;SDS011;873;47.696;8.068;2022-11-20T13:27:00;3.43;;;1.60;;
1751;SDS011;873;47.696;8.068;2022-11-20T13:29:27;2.53;;;1.67;;
1751;SDS011;873;47.696;8.068;2022-11-20T13:34:58;2.17;;;1.77;;
1751;SDS011;873;47.696;8.068;2022-11-20T13:40:05;1.30;;;1.20;;
1751;SDS011;873;47.696;8.068;2022-11-20T13:42:46;3.55;;;1.17;;
1751;SDS011;873;47.696;8.068;2022-11-20T13:45:28;1.70;;;1.60;;
1751;SDS011;873;47.696;8.068;2022-11-20T13:47:56;1.90;;;1.73;;
1751;SDS011;873;47.696;8.068;2022-11-20T13:50:30;3.27;;;2.10;;
1751;SDS011;873;47.696;8.068;2022-11-20T13:58:59;3.57;;;1.63;;
1751;SDS011;873;47.696;8.068;2022-11-20T14:01:42;2.77;;;1.70;;
1751;SDS011;873;47.696;8.068;2022-11-20T14:04:12;1.63;;;1.47;;
1751;SDS011;873;47.696;8.068;2022-11-20T14:06:41;1.23;;;1.20;;
1751;SDS011;873;47.696;8.068;2022-11-20T14:09:23;2.23;;;1.63;;
1751;SDS011;873;47.696;8.068;2022-11-20T14:11:51;3.53;;;1.40;;
1751;SDS011;873;47.696;8.068;2022-11-20T14:14:18;1.70;;;1.60;;
1751;SDS011;873;47.696;8.068;2022-11-20T14:16:46;3.90;;;1.90;;
1751;SDS011;873;47.696;8.068;2022-11-20T14:24:47;3.80;;;1.23;;
1751;SDS011;873;47.696;8.068;2022-11-20T14:27:14;1.20;;;0.80;;
1751;SDS011;873;47.696;8.068;2022-11-20T14:29:44;1.30;;;0.90;;
1751;SDS011;873;47.696;8.068;2022-11-20T14:32:11;1.30;;;0.90;;
1751;SDS011;873;47.696;8.068;2022-11-20T14:34:37;2.53;;;1.00;;
1751;SDS011;873;47.696;8.068;2022-11-20T14:37:06;1.80;;;1.30;;
1751;SDS011;873;47.696;8.068;2022-11-20T14:39:37;3.17;;;1.10;;
1751;SDS011;873;47.696;8.068;2022-11-20T14:42:18;0.93;;;0.93;;
1751;SDS011;873;47.696;8.068;2022-11-20T14:44:51;1.40;;;0.90;;
1751;SDS011;873;47.696;8.068;2022-11-20T14:47:28;1.20;;;0.70;;
1751;SDS011;873;47.696;8.068;2022-11-20T14:49:55;1.20;;;1.00;;
1751;SDS011;873;47.696;8.068;2022-11-20T14:52:23;1.10;;;0.90;;
1751;SDS011;873;47.696;8.068;2022-11-20T14:54:50;1.80;;;0.87;;
1751;SDS011;873;47.696;8.068;2022-11-20T14:57:22;1.43;;;1.07;;
1751;SDS011;873;47.696;8.068;2022-11-20T14:59:51;2.23;;;1.10;;
1751;SDS011;873;47.696;8.068;2022-11-20T15:02:17;1.27;;;0.77;;
1751;SDS011;873;47.696;8.068;2022-11-20T15:04:59;1.20;;;1.00;;
1751;SDS011;873;47.696;8.068;2022-11-20T15:07:29;2.27;;;1.33;;
1751;SDS011;873;47.696;8.068;2022-11-20T15:12:35;2.17;;;0.90;;
1751;SDS011;873;47.696;8.068;2022-11-20T15:15:09;1.47;;;1.20;;
1751;SDS011;873;47.696;8.068;2022-11-20T15:17:36;1.67;;;0.80;;
1751;SDS011;873;47.696;8.068;2022-11-20T15:20:02;1.50;;;0.97;;
1751;SDS011;873;47.696;8.068;2022-11-20T15:22:34;1.13;;;0.73;;
1751;SDS011;873;47.696;8.068;2022-11-20T15:24:59;2.10;;;0.87;;
1751;SDS011;873;47.696;8.068;2022-11-20T15:27:24;1.27;;;0.67;;
1751;SDS011;873;47.696;8.068;2022-11-20T15:29:50;0.80;;;0.80;;
1751;SDS011;873;47.696;8.068;2022-11-20T15:32:15;1.80;;;0.83;;
1751;SDS011;873;47.696;8.068;2022-11-20T15:34:41;2.03;;;1.10;;
1751;SDS011;873;47.696;8.068;2022-11-20T15:37:06;0.83;;;0.77;;
1751;SDS011;873;47.696;8.068;2022-11-20T15:39:32;1.17;;;1.03;;
1751;SDS011;873;47.696;8.068;2022-11-20T15:41:57;1.47;;;1.17;;
1751;SDS011;873;47.696;8.068;2022-11-20T15:44:23;1.17;;;0.93;;
1751;SDS011;873;47.696;8.068;2022-11-20T15:46:48;1.67;;;1.27;;
1751;SDS011;873;47.696;8.068;2022-11-20T15:49:14;2.77;;;1.03;;
1751;SDS011;873;47.696;8.068;2022-11-20T15:51:42;2.13;;;1.20;;
1751;SDS011;873;47.696;8.068;2022-11-20T15:54:10;3.47;;;1.50;;
1751;SDS011;873;47.696;8.068;2022-11-20T15:56:37;4.13;;;1.60;;
1751;SDS011;873;47.696;8.068;2022-11-20T15:59:03;1.80;;;1.70;;
1751;SDS011;873;47.696;8.068;2022-11-20T16:01:28;3.70;;;1.20;;
1751;SDS011;873;47.696;8.068;2022-11-20T16:03:54;3.50;;;2.07;;
1751;SDS011;873;47.696;8.068;2022-11-20T16:06:19;2.97;;;1.30;;
1751;SDS011;873;47.696;8.068;2022-11-20T16:08:45;2.90;;;1.50;;
1751;SDS011;873;47.696;8.068;2022-11-20T16:11:12;3.93;;;1.77;;
1751;SDS011;873;47.696;8.068;2022-11-20T16:13:41;3.00;;;1.47;;
1751;SDS011;873;47.696;8.068;2022-11-20T16:16:29;2.70;;;1.47;;
1751;SDS011;873;47.696;8.068;2022-11-20T16:18:58;2.27;;;1.23;;
1751;SDS011;873;47.696;8.068;2022-11-20T16:21:25;2.53;;;1.50;;
1751;SDS011;873;47.696;8.068;2022-11-20T16:24:02;3.17;;;1.70;;
1751;SDS011;873;47.696;8.068;2022-11-20T16:26:29;1.80;;;1.30;;
1751;SDS011;873;47.696;8.068;2022-11-20T16:28:55;3.00;;;1.43;;
1751;SDS011;873;47.696;8.068;2022-11-20T16:31:21;2.33;;;1.43;;
1751;SDS011;873;47.696;8.068;2022-11-20T16:33:55;2.33;;;1.53;;
1751;SDS011;873;47.696;8.068;2022-11-20T16:36:22;3.63;;;1.57;;
1751;SDS011;873;47.696;8.068;2022-11-20T16:38:52;4.10;;;1.63;;
1751;SDS011;873;47.696;8.068;2022-11-20T16:41:18;3.60;;;1.40;;
1751;SDS011;873;47.696;8.068;2022-11-20T16:43:45;1.53;;;1.43;;
1751;SDS011;873;47.696;8.068;2022-11-20T16:46:16;2.43;;;1.90;;
1751;SDS011;873;47.696;8.068;2022-11-20T16:48:43;2.03;;;1.63;;
1751;SDS011;873;47.696;8.068;2022-11-20T16:51:09;2.60;;;2.40;;
1751;SDS011;873;47.696;8.068;2022-11-20T16:53:35;1.60;;;1.50;;
1751;SDS011;873;47.696;8.068;2022-11-20T16:56:09;1.97;;;1.57;;
1751;SDS011;873;47.696;8.068;2022-11-20T16:58:41;1.90;;;1.50;;
1751;SDS011;873;47.696;8.068;2022-11-20T17:01:09;1.93;;;1.73;;
1751;SDS011;873;47.696;8.068;2022-11-20T17:03:36;3.23;;;1.80;;
1751;SDS011;873;47.696;8.068;2022-11-20T17:06:10;2.00;;;1.80;;
1751;SDS011;873;47.696;8.068;2022-11-20T17:08:36;4.03;;;1.90;;
1751;SDS011;873;47.696;8.068;2022-11-20T17:11:04;2.07;;;1.70;;
1751;SDS011;873;47.696;8.068;2022-11-20T17:13:30;2.43;;;1.67;;
1751;SDS011;873;47.696;8.068;2022-11-20T17:15:59;2.43;;;1.50;;
1751;SDS011;873;47.696;8.068;2022-11-20T17:18:27;2.27;;;1.40;;
1751;SDS011;873;47.696;8.068;2022-11-20T17:20:54;1.77;;;1.40;;
1751;SDS011;873;47.696;8.068;2022-11-20T17:23:19;2.43;;;1.40;;